Sake-power Open!!
自分を見失ってる?


伊丹においで!2013

伊丹飛行場予報(TAF)
2017/11/20 06:30
TAF RJOO 200510Z 2006/2112 29007KT 9999 FEW030 SCT045
↓最新のヒコーキ写真はこちらから!
 
過去のヒコーキ写真集
 
 

専用の掲示板も作りました

携帯からもアクセス出来ます→http://mcia.jp/nao-bbs/senbu/chabo/chabo.cgi

関連リンク集

Sierraさんのページ
ヒコーキ写真の老舗HP。ラリー写真も大人気!

WeeklyPhotoは毎週更新中!是非どうぞ!
みかんのじかん
伊丹空港以外でも精力的に活動されていて
貴重な写真も豊富にあるモーヤ評論・サイトです。
hikoutaityou airways
様々な体験会・見学会に積極的に参加してる
飛行隊長のページ。展望台に写真がイッパイ!
雨男のページ。モーヤ教発祥の地。
残念ですがおっぱいはありません。
名実共にモーヤです別名、エロ.daemon(in.erod)

懐かしヒコーキ写真

トリトンブルーのB727-200/JA8354 伊丹にて




↑もう、みた?

↑かっけのページを「セイバイ」!


↓ バナー使って!!


(C)せんぶ